Flight Track Log - Related Links

Times and Time Zones

All times are in EDT time to prevent confusion due to time zone crossing. See the N720EC flight status page for this flight to view local times or setup timezone preferences in your user account.

Time Position Orientation Groundspeed Altitude Reporting Facility
EDT Latitude Longitude Course Direction KTS MPH feet Rate Location/Type
Thu 09:48:08 AM 44.8575 -68.5244 85° East 176 203 5,400  Level Boston Center
Thu 09:49:08 AM 44.8617 -68.4628 85° East 171 197 5,600 -50 Climbing Boston Center
Thu 09:50:08 AM 44.8694 -68.3889 82° East 177 204 5,300 -200 Descending Boston Center
Thu 09:51:08 AM 44.8756 -68.3211 83° East 182 209 5,200 -50 Descending Boston Center
Thu 09:52:08 AM 44.8769 -68.2506 88° East 182 209 5,200  Level Boston Center
Thu 09:53:20 AM 44.8800 -68.1625 87° East 182 209 5,200  Level Boston Center
Thu 09:54:20 AM 44.8803 -68.1097 90° East 182 209 5,200  Level Boston Center
Thu 09:55:20 AM 44.8833 -68.0244 87° East 182 209 5,200  Level Boston Center
Thu 09:56:20 AM 44.8847 -67.9539 88° East 182 209 5,200  Level Boston Center
Thu 09:57:20 AM 44.8861 -67.8836 88° East 182 209 5,200  Level Boston Center
Thu 09:58:20 AM 44.8894 -67.8128 86° East 182 209 5,200  Level Boston Center
Thu 09:59:20 AM 44.8908 -67.7425 88° East 182 209 5,200 -100 Level Boston Center
Thu 10:00:20 AM 44.8942 -67.6717 86° East 177 204 5,000 -200 Descending Boston Center
Thu 10:02:00 AM 44.8908 -67.5897 93° East  Level FlightAware Approximate
Thu 10:09:00 AM 44.8931 -67.2424 85° East  Level FlightAware Approximate
Thu 10:10:00 AM 44.8958 -67.1933 86° East  Level FlightAware Approximate
Thu 10:11:00 AM 44.8985 -67.1441 86° East  Level FlightAware Approximate
Thu 10:12:00 AM 44.9000 -67.0949 90° East  Level FlightAware Approximate
Thu 10:13:00 AM 44.9000 -67.0456 90° East  Level FlightAware Approximate
Thu 10:14:00 AM 44.9000 -67.0000 90° East  Level FlightAware Approximate
Thu 10:15:00 AM 44.9101 -67.0127 90° East  Level Estimated
Thu 10:16:00 AM 44.9101 -67.0127 90° East  Level Estimated
Thu 10:17:00 AM 44.9101 -67.0127 90° East  Level Estimated
Thu 10:18:00 AM 44.9101 -67.0127 90° East  Level Estimated
Thu 10:19:00 AM 44.9101 -67.0127 90° East  Level Estimated
Thu 10:20:00 AM 44.9101 -67.0127 90° East  Level Estimated
Thu 10:21:00 AM 44.9101 -67.0127 90° East  Level Estimated
Thu 10:22:00 AM 44.9101 -67.0127 90° East  Level Estimated
Thu 10:23:00 AM 44.9101 -67.0127 90° East  Level Estimated
Thu 10:24:00 AM 44.9101 -67.0127 90° East  Level Estimated
Thu 10:25:00 AM 44.9101 -67.0127 90° East  Level Estimated
Thu 10:26:00 AM 44.9101 -67.0127 90° East  Level Estimated
Thu 10:27:00 AM 44.9101 -67.0127 90° East  Level Estimated
Thu 10:28:00 AM 44.9101 -67.0127 90° East  Level Estimated
Thu 10:29:00 AM 44.9101 -67.0127 90° East  Level Estimated
Thu 10:30:00 AM 44.9101 -67.0127 90° East  Level Estimated
Thu 10:31:00 AM 44.9101 -67.0127 90° East  Level Estimated
Thu 10:32:00 AM 44.9101 -67.0127 90° East  Level Estimated
Thu 10:33:00 AM 44.9101 -67.0127 90° East  Level Estimated
Thu 10:34:00 AM 44.9101 -67.0127 90° East  Level Estimated
Thu 10:35:00 AM 44.9101 -67.0127 90° East  Level Estimated
Thu 10:36:00 AM 44.9101 -67.0127 90° East  Level Estimated
Thu 10:37:00 AM 44.9101 -67.0127 90° East  Level Estimated
Thu 10:38:00 AM 44.9101 -67.0127 90° East  Level Estimated
Thu 10:39:00 AM 44.9101 -67.0127 90° East  Level Estimated
Thu 10:40:00 AM 44.9101 -67.0127 90° East  Level Estimated

Login

Don't have an account? Register now (free) for customized features, flight alerts, and more!